Key West, FL

22:55 EDT le 25 octobre 2014 (GMT -0400)
Dade County-Homestead Regional | Change Station
CLOSE
Current Station
Aéroport
Location: Homestead AFB,
Altitude: 7 ft
Stations météo à proximité

Alt. 7 ft 25.49 °N, 80.38 °W | Updated 57 minutes ago

Ciel dégagé
Ciel dégagé
72 ° F
Paraît 72 ° F
N
4
Vent Variable Vent de Nord

Aujourd'hui
Haut(e) -- | Bas -- ° F
--% Risque de précip.
Hier
Haut(e) -- | Bas -- ° F
Precip. -- pouce
7:29 AM 6:51 PM
Lune montante, 5% visible
Pression 29.95 pouce
Visibilité 10.0 Miles terrestres
Nuages Ciel dégagé
Point de rosée 62 ° F
Humidité 70%
Précipitations 0.00 pouce
Profondeur de la couche neigeuse Non disponible.
UV 0 sur 12
Pollen 3.40 sur 12
Qualité de l'air Non disponible.
Flu Activity Local Activity
METAR KHST 260158Z AUTO 01003KT 10SM CLR 22/17 A2994 RMK AO2 SLP142 T02230167

More Conditions Fewer Conditions

Pression 29.95 pouce
Visibilité 10.0 Miles terrestres
Nuages Ciel dégagé
Point de rosée 62 ° F
Humidité 70%
Précipitations 0.00 pouce
Profondeur de la couche neigeuse Non disponible.
UV 0 sur 12
Pollen 3.40 sur 12
Qualité de l'air Non disponible.
Flu Activity Local Activity
METAR KHST 260158Z AUTO 01003KT 10SM CLR 22/17 A2994 RMK AO2 SLP142 T02230167

More Conditions Fewer Conditions

10-Day Weather Forecast

Almanac

Astronomie

Oct. 25, 2014 Lever Coucher
Temps réel 07:29 EDT 18:51 EDT
Crépuscule civil 07:06 EDT 19:14 EDT
Crépuscule nautique 06:39 EDT 19:41 EDT
Crépuscule astronomique 06:12 EDT 20:07 EDT
Lune 08:59 EDT (10/25) 20:22 EDT (10/25)
Durée de lumière visible 12h 08m
Longueur du jour
11h 21m
Tomorrow will be 1m 18s shorter.
Lune montante, 5% of the Moon is Illuminated
Aujourd'hui
Lune montante
Oct 30
Premier quartier
Nov 6
Pleine lune
Nov 14
Dernier quartier
Nov 22
Nouveau

Extrêmes aujourd'hui

State Highs State Lows

Community

WunderPhotos

Upload Photos

1,765,086 Photos téléchargées !

Nearby

Épaisseur de neige

Station Depth Altitude
Pas de nouvelles chutes de neige

Activité sismique

Ville Distance Mag. Time & Date
No recent earthquake activity has been reported nearby.
Minimum magnitude displayed is 2.5.

Températures des eaux côtières

Lieu Température
Key West, FL 79.0 ° F
Vaca Key, FL 77.0 ° F

Stations météo à proximité